Terminal Aerodrome Forecast
Issued by NWS Duluth, MN

Home | Current Version | Previous Version | Text Only | Print | Product List | Glossary On
Versions: 1 2 3 4 5 6 7 8 9 10 11 12 13 14 15 16 17 18 19 20 21 22 23 24 25 26 27 28 29 30
000
FTUS43 KDLH 301700
TAFINL
TAF
KINL 301739Z 3018/3118 16007KT P6SM OVC060
      TEMPO 3018/3021 1 1/2SM -SN BR OVC025
     FM302100 17014KT 4SM -SHSN OVC025
      TEMPO 3021/3024 1SM -SHSN OVC010
     FM310400 28008KT 4SM -SHSN OVC020
     FM310800 32010KT P6SM BKN050=

USA.gov is the U.S. government's official web portal to all federal, state and local government web resources and services.